Time;durP1;ratioP1;P1;durP2;ratioP2;P2;SDS_P1;SDS_P2;PMS_P1;PMS_P2;Temp;Humidity;BMP_temperature;BMP_pressure;BME280_temperature;BME280_humidity;BME280_pressure;Samples;Min_cycle;Max_cycle;Signal;HPM_P1;HPM_P2
2022/05/21 00:00:12;;;;;;;;;;;;;;;16.20;100.00;96195.97;1035356;28;19918;-72
2022/05/21 00:00:42;;;;;;;;;;;;;;;16.21;100.00;96189.59;1035670;28;19921;-72
2022/05/21 00:01:12;;;;;;;;;;;;;;;16.21;100.00;96186.16;1035488;28;19917;-72
2022/05/21 00:01:43;;;;;;;;;;;;;;;16.19;100.00;96183.78;1031882;28;20016;-72
2022/05/21 00:02:13;;;;;;;;;;;;;;;16.18;100.00;96192.81;1035313;28;19921;-69
2022/05/21 00:02:43;;;;;;;;;;;;;;;16.17;100.00;96195.75;1039631;28;20395;-72
2022/05/21 00:03:14;;;;;;;;;;;;;;;16.15;100.00;96185.44;1039641;28;19928;-72
2022/05/21 00:03:44;;;;;;;;;;;;;;;16.14;100.00;96189.16;1039854;28;19921;-72
2022/05/21 00:04:14;;;;;;;;;;;;;;;16.15;100.00;96193.38;1039782;28;20564;-72
2022/05/21 00:04:44;;;;;;;;;;;;;;;16.15;100.00;96205.84;1032730;28;19918;-72
2022/05/21 00:05:15;;;;;;;;;;;;;;;16.13;100.00;96210.63;1027456;28;19932;-72
2022/05/21 00:05:46;;;;;;;;;;;;;;;16.13;100.00;96206.13;1027821;28;19918;-72
2022/05/21 00:06:16;;;;;;;;;;;;;;;16.11;100.00;96208.25;1028072;28;19918;-73
2022/05/21 00:06:47;;;;;;;;;;;;;;;16.10;100.00;96212.00;1027667;28;20505;-73
2022/05/21 00:07:18;;;;;;;;;;;;;;;16.11;100.00;96210.13;1031704;28;19961;-72
2022/05/21 00:07:48;;;;;;;;;;;;;;;16.11;100.00;96204.84;1035942;28;20321;-72
2022/05/21 00:08:18;;;;;;;;;;;;;;;16.06;100.00;96205.69;1039485;28;19913;-72
2022/05/21 00:08:48;;;;;;;;;;;;;;;16.09;100.00;96205.09;1039948;28;19971;-72
2022/05/21 00:09:19;;;;;;;;;;;;;;;16.08;100.00;96202.75;1035543;28;20403;-72
2022/05/21 00:09:49;;;;;;;;;;;;;;;16.06;100.00;96210.97;1030979;28;19921;-72
2022/05/21 00:10:20;;;;;;;;;;;;;;;16.07;100.00;96206.50;1027652;28;20547;-72
2022/05/21 00:10:51;;;;;;;;;;;;;;;16.05;100.00;96206.75;1027547;28;19926;-72
2022/05/21 00:11:21;;;;;;;;;;;;;;;16.03;100.00;96203.63;1031663;28;19949;-73
2022/05/21 00:11:52;;;;;;;;;;;;;;;16.06;100.00;96205.69;1035718;28;20007;-72
2022/05/21 00:12:22;;;;;;;;;;;;;;;16.06;100.00;96208.31;1043548;28;19971;-72
2022/05/21 00:12:53;;;;;;;;;;;;;;;16.05;100.00;96213.91;1035644;28;19921;-74
2022/05/21 00:13:24;;;;;;;;;;;;;;;16.02;100.00;96204.69;1035552;28;20540;-73
2022/05/21 00:13:56;;;;;;;;;;;;;;;15.99;100.00;96207.88;1035815;28;19940;-72
2022/05/21 00:14:30;;;;;;;;;;;;;;;16.00;100.00;96206.84;1025682;28;19922;-73
2022/05/21 00:15:00;;;;;;;;;;;;;;;15.97;100.00;96202.13;1033214;28;19964;-72
2022/05/21 00:15:31;;;;;;;;;;;;;;;15.98;100.00;96208.97;1035515;28;19933;-74
2022/05/21 00:16:01;;;;;;;;;;;;;;;15.97;100.00;96204.75;1032327;28;19910;-72
2022/05/21 00:16:32;;;;;;;;;;;;;;;15.97;100.00;96202.91;1039645;28;19952;-72
2022/05/21 00:17:02;;;;;;;;;;;;;;;15.96;100.00;96200.53;1035869;28;20799;-73
2022/05/21 00:17:33;;;;;;;;;;;;;;;15.95;100.00;96205.03;1039429;28;19913;-72
2022/05/21 00:18:04;;;;;;;;;;;;;;;15.92;100.00;96204.81;1035794;28;20004;-72
2022/05/21 00:18:34;;;;;;;;;;;;;;;15.95;100.00;96212.19;1031484;28;20531;-73
2022/05/21 00:19:04;;;;;;;;;;;;;;;15.92;100.00;96208.25;1031691;28;19939;-72
2022/05/21 00:19:34;;;;;;;;;;;;;;;15.91;100.00;96209.31;1030978;28;19914;-72
2022/05/21 00:20:07;;;;;;;;;;;;;;;15.90;100.00;96222.84;1033041;28;19930;-72
2022/05/21 00:20:50;;;;;;;;;;;;;;;15.89;100.00;96222.03;1035166;28;20564;-73
2022/05/21 00:21:20;;;;;;;;;;;;;;;15.90;100.00;96209.63;1027799;28;19965;-73
2022/05/21 00:21:50;;;;;;;;;;;;;;;15.88;100.00;96222.34;1031354;28;19918;-72
2022/05/21 00:22:21;;;;;;;;;;;;;;;15.87;100.00;96226.06;1036572;28;19913;-73
2022/05/21 00:22:51;;;;;;;;;;;;;;;15.88;100.00;96232.94;1039822;28;19905;-72
2022/05/21 00:23:24;;;;;;;;;;;;;;;15.87;100.00;96237.44;1031477;28;19914;-73
2022/05/21 00:23:55;;;;;;;;;;;;;;;15.89;100.00;96237.13;1031921;28;19910;-72
2022/05/21 00:24:26;;;;;;;;;;;;;;;15.88;100.00;96239.00;1027653;28;20707;-73
2022/05/21 00:24:56;;;;;;;;;;;;;;;15.88;100.00;96239.00;1028064;28;19965;-73
2022/05/21 00:25:29;;;;;;;;;;;;;;;15.90;100.00;96241.38;1028149;28;19928;-72
2022/05/21 00:26:00;;;;;;;;;;;;;;;15.89;100.00;96240.56;1031764;28;19918;-72
2022/05/21 00:26:31;;;;;;;;;;;;;;;15.91;100.00;96245.59;1035616;28;20294;-72
2022/05/21 00:27:01;;;;;;;;;;;;;;;15.93;100.00;96244.25;1035806;28;19921;-72
2022/05/21 00:27:32;;;;;;;;;;;;;;;15.92;100.00;96242.66;1038439;28;20287;-71
2022/05/21 00:28:02;;;;;;;;;;;;;;;15.92;100.00;96242.66;1043819;28;20620;-73
2022/05/21 00:28:33;;;;;;;;;;;;;;;15.93;100.00;96244.25;1039527;28;19929;-72
2022/05/21 00:29:03;;;;;;;;;;;;;;;15.96;100.00;96253.44;1033448;28;20311;-72
2022/05/21 00:29:33;;;;;;;;;;;;;;;15.92;100.00;96255.09;1031059;28;20314;-72
2022/05/21 00:30:04;;;;;;;;;;;;;;;15.93;100.00;96262.78;1031385;28;19920;-72
2022/05/21 00:30:34;;;;;;;;;;;;;;;15.93;100.00;96272.56;1036492;28;19925;-72
2022/05/21 00:31:05;;;;;;;;;;;;;;;15.92;100.00;96268.34;1035750;28;19906;-72
2022/05/21 00:31:36;;;;;;;;;;;;;;;15.94;100.00;96266.19;1031290;28;20353;-72
2022/05/21 00:32:09;;;;;;;;;;;;;;;15.94;100.00;96250.31;1031606;28;19940;-73
2022/05/21 00:32:39;;;;;;;;;;;;;;;15.95;100.00;96251.88;1025377;28;19918;-73
2022/05/21 00:33:10;;;;;;;;;;;;;;;15.95;100.00;96254.53;1026790;28;20172;-73
2022/05/21 00:33:40;;;;;;;;;;;;;;;15.96;100.00;96256.09;1027063;28;19941;-72
2022/05/21 00:34:10;;;;;;;;;;;;;;;15.97;100.00;96265.63;1027266;28;20075;-72
2022/05/21 00:34:41;;;;;;;;;;;;;;;15.95;100.00;96265.13;1031583;28;20304;-73
2022/05/21 00:35:11;;;;;;;;;;;;;;;15.95;100.00;96268.56;1031756;28;19917;-72
2022/05/21 00:35:41;;;;;;;;;;;;;;;15.94;100.00;96271.50;1035428;28;19920;-72
2022/05/21 00:36:12;;;;;;;;;;;;;;;15.95;100.00;96278.34;1031570;28;19987;-72
2022/05/21 00:36:42;;;;;;;;;;;;;;;15.95;100.00;96263.25;1031762;28;19914;-72
2022/05/21 00:37:13;;;;;;;;;;;;;;;15.96;100.00;96262.22;1039614;28;19939;-72
2022/05/21 00:37:43;;;;;;;;;;;;;;;15.97;100.00;96260.34;1039995;28;19917;-73
2022/05/21 00:38:13;;;;;;;;;;;;;;;15.96;100.00;96253.44;1043568;28;20404;-73
2022/05/21 00:38:44;;;;;;;;;;;;;;;15.95;100.00;96249.25;1043734;28;19939;-72
2022/05/21 00:39:14;;;;;;;;;;;;;;;15.92;100.00;96241.88;1035589;28;19914;-73
2022/05/21 00:39:44;;;;;;;;;;;;;;;15.89;100.00;96239.78;1026958;28;19910;-72
2022/05/21 00:40:15;;;;;;;;;;;;;;;15.85;100.00;96230.84;1027516;28;19958;-73
2022/05/21 00:40:45;;;;;;;;;;;;;;;15.85;100.00;96230.84;1023576;28;20479;-73
2022/05/21 00:41:16;;;;;;;;;;;;;;;15.84;100.00;96229.28;1030905;28;19906;-72
2022/05/21 00:41:50;;;;;;;;;;;;;;;15.78;100.00;96233.84;1031834;28;20675;-71
2022/05/21 00:42:20;;;;;;;;;;;;;;;15.76;100.00;96236.78;1032272;28;19910;-73
2022/05/21 00:42:50;;;;;;;;;;;;;;;15.74;100.00;96244.19;1040126;28;19913;-73
2022/05/21 00:43:53;;;;;;;;;;;;;;;15.75;100.00;96250.28;1040029;28;20367;-72
2022/05/21 00:44:23;;;;;;;;;;;;;;;15.67;100.00;96251.69;1031028;28;19967;-73
2022/05/21 00:44:54;;;;;;;;;;;;;;;15.64;100.00;96246.16;1027148;28;20482;-72
2022/05/21 00:45:24;;;;;;;;;;;;;;;15.62;100.00;96243.78;1026340;28;19973;-72
2022/05/21 00:45:55;;;;;;;;;;;;;;;15.59;100.00;96244.31;1027693;28;20490;-72
2022/05/21 00:46:26;;;;;;;;;;;;;;;15.57;100.00;96243.84;1031492;28;20350;-71
2022/05/21 00:46:56;;;;;;;;;;;;;;;15.53;100.00;96253.41;1031725;28;20411;-72
2022/05/21 00:47:27;;;;;;;;;;;;;;;15.48;100.00;96250.81;1039816;28;19913;-72
2022/05/21 00:47:57;;;;;;;;;;;;;;;15.44;100.00;96252.44;1042444;28;19912;-72
2022/05/21 00:48:27;;;;;;;;;;;;;;;15.43;100.00;96251.66;1039560;28;19960;-73
2022/05/21 00:49:01;;;;;;;;;;;;;;;15.40;100.00;96252.22;1035275;28;20403;-72
2022/05/21 00:49:32;;;;;;;;;;;;;;;15.38;100.00;96253.56;1035321;28;19921;-72
2022/05/21 00:50:03;;;;;;;;;;;;;;;15.36;100.00;96259.16;1031115;28;19917;-72
2022/05/21 00:50:33;;;;;;;;;;;;;;;15.36;100.00;96258.31;1032564;28;19917;-72
2022/05/21 00:51:03;;;;;;;;;;;;;;;15.33;100.00;96260.47;1039446;28;20399;-72
2022/05/21 00:51:38;;;;;;;;;;;;;;;15.37;100.00;96254.63;1035684;28;19929;-72
2022/05/21 00:52:10;;;;;;;;;;;;;;;15.35;100.00;96249.63;1031458;28;19917;-72
2022/05/21 00:52:41;;;;;;;;;;;;;;;15.35;100.00;96257.53;1027709;28;20367;-72
2022/05/21 00:53:11;;;;;;;;;;;;;;;15.31;100.00;96244.09;1027410;28;19945;-72
2022/05/21 00:53:42;;;;;;;;;;;;;;;15.31;100.00;96246.75;1031661;28;20509;-72
2022/05/21 00:54:12;;;;;;;;;;;;;;;15.30;100.00;96250.47;1031802;28;19980;-71
2022/05/21 00:54:53;;;;;;;;;;;;;;;15.25;100.00;96245.22;1038015;28;19975;-72
2022/05/21 00:55:26;;;;;;;;;;;;;;;15.34;100.00;96253.34;1043880;28;19912;-72
2022/05/21 00:55:56;;;;;;;;;;;;;;;15.33;100.00;96257.84;1035487;28;19917;-71
2022/05/21 00:56:26;;;;;;;;;;;;;;;15.32;100.00;96255.47;1032386;28;19949;-72
2022/05/21 00:56:58;;;;;;;;;;;;;;;15.35;100.00;96260.19;1019280;29;19953;-71
2022/05/21 00:57:29;;;;;;;;;;;;;;;15.34;100.00;96258.63;1029208;28;19917;-72
2022/05/21 00:59:47;;;;;;;;;;;;;;;15.40;100.00;96262.00;1034291;28;19924;-73
2022/05/21 01:00:19;;;;;;;;;;;;;;;15.38;100.00;96258.84;1035561;28;19924;-73
2022/05/21 01:00:50;;;;;;;;;;;;;;;15.39;100.00;96265.72;1035605;28;19961;-73
2022/05/21 01:01:20;;;;;;;;;;;;;;;15.40;100.00;96269.94;1035023;28;19947;-72
2022/05/21 01:01:53;;;;;;;;;;;;;;;15.39;100.00;96271.81;1030096;28;20320;-73
2022/05/21 01:02:25;;;;;;;;;;;;;;;15.39;100.00;96260.41;1027677;28;19918;-72
2022/05/21 01:02:56;;;;;;;;;;;;;;;15.38;100.00;96274.72;1031053;28;20465;-71
2022/05/21 01:03:27;;;;;;;;;;;;;;;15.38;100.00;96269.44;1031771;28;19956;-71
2022/05/21 01:03:57;;;;;;;;;;;;;;;15.36;100.00;96271.53;1027969;28;20018;-71
2022/05/21 01:04:28;;;;;;;;;;;;;;;15.36;100.00;96266.25;1031694;28;20487;-72
2022/05/21 01:04:59;;;;;;;;;;;;;;;15.38;100.00;96270.22;1035276;28;19929;-72
2022/05/21 01:05:30;;;;;;;;;;;;;;;15.37;100.00;96271.28;1031531;28;19922;-75
2022/05/21 01:06:03;;;;;;;;;;;;;;;15.39;100.00;96265.72;1035525;28;20398;-72
2022/05/21 01:06:33;;;;;;;;;;;;;;;15.38;100.00;96270.22;1027916;28;20518;-72
2022/05/21 01:07:04;;;;;;;;;;;;;;;15.39;100.00;96273.63;1027504;28;19977;-72
2022/05/21 01:07:37;;;;;;;;;;;;;;;15.36;100.00;96266.25;1031350;28;19944;-72
2022/05/21 01:08:08;;;;;;;;;;;;;;;15.37;100.00;96270.50;1028209;28;19918;-73
2022/05/21 01:08:38;;;;;;;;;;;;;;;15.37;100.00;96273.94;1028365;28;19981;-72
2022/05/21 01:09:09;;;;;;;;;;;;;;;15.39;100.00;96271.00;1031325;28;20032;-72
2022/05/21 01:09:39;;;;;;;;;;;;;;;15.37;100.00;96271.28;1030801;28;19922;-72
2022/05/21 01:10:10;;;;;;;;;;;;;;;15.38;100.00;96272.06;1031249;28;20383;-72
2022/05/21 01:10:44;;;;;;;;;;;;;;;15.27;100.00;96255.53;1027497;28;20016;-72
2022/05/21 01:11:17;;;;;;;;;;;;;;;15.35;100.00;96262.06;1031308;28;19938;-72
2022/05/21 01:11:48;;;;;;;;;;;;;;;15.33;100.00;96268.41;1029294;28;19958;-72
2022/05/21 01:12:18;;;;;;;;;;;;;;;15.31;100.00;96267.09;1039441;28;19913;-72
2022/05/21 01:12:49;;;;;;;;;;;;;;;15.35;100.00;96267.34;1030900;28;19924;-72
2022/05/21 01:13:20;;;;;;;;;;;;;;;15.30;100.00;96268.97;1031249;28;19949;-72
2022/05/21 01:13:50;;;;;;;;;;;;;;;15.28;100.00;96260.50;1031265;28;19992;-72
2022/05/21 01:14:21;;;;;;;;;;;;;;;15.26;100.00;96267.97;1031675;28;19929;-71
2022/05/21 01:14:52;;;;;;;;;;;;;;;15.25;100.00;96269.00;1031252;28;20384;-71
2022/05/21 01:15:39;;;;;;;;;;;;;;;15.24;100.00;96270.09;1031482;28;20659;-74
2022/05/21 01:16:09;;;;;;;;;;;;;;;15.25;100.00;96266.34;1033841;28;19917;-71
2022/05/21 01:16:40;;;;;;;;;;;;;;;15.26;100.00;96277.75;1033772;28;19922;-72
2022/05/21 01:17:10;;;;;;;;;;;;;;;15.25;100.00;96269.00;1035534;28;20295;-71
2022/05/21 01:17:41;;;;;;;;;;;;;;;15.25;100.00;96269.00;1035276;28;19960;-72
2022/05/21 01:18:11;;;;;;;;;;;;;;;15.25;100.00;96276.16;1031366;28;19918;-71
2022/05/21 01:18:41;;;;;;;;;;;;;;;15.23;100.00;96278.31;1031273;28;20338;-72
2022/05/21 01:19:12;;;;;;;;;;;;;;;15.23;100.00;96271.16;1019507;28;19927;-72
2022/05/21 01:19:55;;;;;;;;;;;;;;;15.23;100.00;96279.09;1022496;29;20740;-71
2022/05/21 01:20:55;;;;;;;;;;;;;;;15.23;100.00;96273.81;1027035;28;20423;-73
2022/05/21 01:21:25;;;;;;;;;;;;;;;15.20;100.00;96282.28;1023222;29;19915;-72
2022/05/21 01:21:56;;;;;;;;;;;;;;;15.22;100.00;96282.00;1030885;28;19929;-72
2022/05/21 01:22:27;;;;;;;;;;;;;;;15.21;100.00;96264.56;1031542;28;19999;-71
2022/05/21 01:23:00;;;;;;;;;;;;;;;15.23;100.00;96279.09;1035437;28;20011;-72
2022/05/21 01:23:33;;;;;;;;;;;;;;;15.21;100.00;96270.63;1036144;28;19922;-72
2022/05/21 01:24:05;;;;;;;;;;;;;;;15.20;100.00;96279.63;1037490;28;19921;-72
2022/05/21 01:24:35;;;;;;;;;;;;;;;15.20;100.00;96279.63;1035364;28;20029;-72
2022/05/21 01:25:06;;;;;;;;;;;;;;;15.21;100.00;96281.22;1031355;28;19926;-72
2022/05/21 01:25:38;;;;;;;;;;;;;;;15.18;100.00;96289.69;1030566;28;19921;-72
2022/05/21 01:26:18;;;;;;;;;;;;;;;15.19;100.00;96291.28;1023387;28;20217;-72
2022/05/21 01:26:48;;;;;;;;;;;;;;;15.18;100.00;96287.06;1020951;29;20413;-72
2022/05/21 01:27:19;;;;;;;;;;;;;;;15.18;100.00;96281.75;1023193;29;19919;-72
2022/05/21 01:27:50;;;;;;;;;;;;;;;15.18;100.00;96289.69;1022368;28;19925;-72
2022/05/21 01:28:21;;;;;;;;;;;;;;;15.17;100.00;96285.47;1023675;28;19919;-72
2022/05/21 01:28:51;;;;;;;;;;;;;;;15.16;100.00;96283.13;1031297;28;20387;-72
2022/05/21 01:29:22;;;;;;;;;;;;;;;15.19;100.00;96291.28;1031284;28;19913;-73
2022/05/21 01:29:53;;;;;;;;;;;;;;;15.18;100.00;96284.41;1034812;28;19964;-72
2022/05/21 01:30:26;;;;;;;;;;;;;;;15.18;100.00;96284.41;1035606;28;19949;-72
2022/05/21 01:30:57;;;;;;;;;;;;;;;15.17;100.00;96284.69;1040184;28;19905;-72
2022/05/21 01:31:28;;;;;;;;;;;;;;;15.17;100.00;96282.84;1043112;28;19916;-72
2022/05/21 01:31:58;;;;;;;;;;;;;;;15.16;100.00;96283.13;1043608;28;19901;-72
2022/05/21 01:32:28;;;;;;;;;;;;;;;15.16;100.00;96280.47;1035573;28;20406;-73
2022/05/21 01:32:59;;;;;;;;;;;;;;;15.16;100.00;96283.13;1035191;28;19912;-72
2022/05/21 01:33:33;;;;;;;;;;;;;;;15.14;100.00;96286.03;1027345;28;19911;-71
2022/05/21 01:34:04;;;;;;;;;;;;;;;15.16;100.00;96280.47;1027874;28;19918;-72
2022/05/21 01:34:35;;;;;;;;;;;;;;;15.15;100.00;96287.59;1027732;28;19917;-72
2022/05/21 01:35:06;;;;;;;;;;;;;;;15.15;100.00;96284.19;1023998;28;19965;-73
2022/05/21 01:35:37;;;;;;;;;;;;;;;15.12;100.00;96280.22;1023218;28;19910;-72
2022/05/21 01:36:07;;;;;;;;;;;;;;;15.11;100.00;96283.94;1030688;28;20315;-72
2022/05/21 01:36:37;;;;;;;;;;;;;;;15.13;100.00;96289.75;1027823;28;19910;-72
2022/05/21 01:37:08;;;;;;;;;;;;;;;15.13;100.00;96284.47;1031433;28;20314;-72
2022/05/21 01:37:39;;;;;;;;;;;;;;;15.14;100.00;96290.53;1035357;28;19913;-73
2022/05/21 01:38:11;;;;;;;;;;;;;;;15.13;100.00;96294.25;1031413;28;20476;-72
2022/05/21 01:38:42;;;;;;;;;;;;;;;15.12;100.00;96293.44;1027388;28;19906;-72
2022/05/21 01:39:12;;;;;;;;;;;;;;;15.12;100.00;96293.44;1031411;28;19914;-71
2022/05/21 01:39:43;;;;;;;;;;;;;;;15.14;100.00;96296.59;1026855;28;19973;-72
2022/05/21 01:40:13;;;;;;;;;;;;;;;15.13;100.00;96297.69;1030121;28;19985;-72
2022/05/21 01:40:44;;;;;;;;;;;;;;;15.13;100.00;96295.03;1039546;28;20382;-72
2022/05/21 01:41:14;;;;;;;;;;;;;;;15.12;100.00;96293.44;1035014;28;19910;-71
2022/05/21 01:41:48;;;;;;;;;;;;;;;15.11;100.00;96286.59;1027408;28;19914;-72
2022/05/21 01:42:19;;;;;;;;;;;;;;;15.13;100.00;96287.09;1027118;28;19910;-72
2022/05/21 01:44:37;;;;;;;;;;;;;;;15.10;100.00;96285.03;1030275;28;20008;-72
2022/05/21 01:44:40;;;;;;;;;;;;;;;15.11;100.00;96291.88;1043941;28;20007;-71
2022/05/21 01:45:10;;;;;;;;;;;;;;;15.09;100.00;96288.75;1043475;28;20486;-71
2022/05/21 01:45:41;;;;;;;;;;;;;;;15.09;100.00;96286.09;1035704;28;19918;-72
2022/05/21 01:46:11;;;;;;;;;;;;;;;15.09;100.00;96286.88;1035300;28;19909;-71
2022/05/21 01:46:44;;;;;;;;;;;;;;;15.08;100.00;96295.84;1031356;28;19914;-72
2022/05/21 01:47:15;;;;;;;;;;;;;;;15.07;100.00;96286.34;1032057;28;19918;-71
2022/05/21 01:47:45;;;;;;;;;;;;;;;15.09;100.00;96299.31;1039294;28;19909;-72
2022/05/21 01:48:19;;;;;;;;;;;;;;;15.09;100.00;96294.03;1035162;28;19940;-72
2022/05/21 01:48:49;;;;;;;;;;;;;;;15.09;100.00;96294.03;1031447;28;20143;-72
2022/05/21 01:49:19;;;;;;;;;;;;;;;15.09;100.00;96296.66;1027237;28;19960;-72
2022/05/21 01:49:51;;;;;;;;;;;;;;;15.10;100.00;96295.59;1026721;28;19990;-72
2022/05/21 01:50:22;;;;;;;;;;;;;;;15.12;100.00;96297.94;1028458;28;19941;-69
2022/05/21 01:50:52;;;;;;;;;;;;;;;15.09;100.00;96299.31;1035475;28;20367;-72
2022/05/21 01:51:22;;;;;;;;;;;;;;;15.09;100.00;96300.09;1038303;28;19920;-71
2022/05/21 01:51:52;;;;;;;;;;;;;;;15.10;100.00;96300.88;1039369;28;20386;-71
2022/05/21 01:52:23;;;;;;;;;;;;;;;15.11;100.00;96293.72;1039526;28;20723;-72
2022/05/21 01:52:53;;;;;;;;;;;;;;;15.11;100.00;96299.81;1035687;28;20004;-72
2022/05/21 01:53:23;;;;;;;;;;;;;;;15.12;100.00;96301.38;1035777;28;19948;-72
2022/05/21 01:53:54;;;;;;;;;;;;;;;15.09;100.00;96299.31;1038983;28;20391;-71
2022/05/21 01:54:24;;;;;;;;;;;;;;;15.10;100.00;96300.88;1038835;28;20007;-70
2022/05/21 01:54:54;;;;;;;;;;;;;;;15.10;100.00;96300.88;1039808;28;19917;-71
2022/05/21 01:55:25;;;;;;;;;;;;;;;15.12;100.00;96304.00;1035894;28;20059;-72
2022/05/21 01:55:56;;;;;;;;;;;;;;;15.13;100.00;96310.13;1039685;28;19917;-74
2022/05/21 01:56:26;;;;;;;;;;;;;;;15.12;100.00;96304.00;1035380;28;19953;-72
2022/05/21 01:56:56;;;;;;;;;;;;;;;15.11;100.00;96301.66;1035600;28;19949;-72
2022/05/21 01:57:27;;;;;;;;;;;;;;;15.13;100.00;96295.03;1035300;28;19917;-72
2022/05/21 01:57:57;;;;;;;;;;;;;;;15.13;100.00;96302.97;1027341;28;20411;-72
2022/05/21 01:58:28;;;;;;;;;;;;;;;15.13;100.00;96302.19;1035844;28;19972;-72
2022/05/21 01:58:58;;;;;;;;;;;;;;;15.13;100.00;96305.63;1031728;28;19913;-73
2022/05/21 01:59:28;;;;;;;;;;;;;;;15.12;100.00;96306.66;1035653;28;19913;-71
2022/05/21 01:59:59;;;;;;;;;;;;;;;15.13;100.00;96304.81;1030814;28;19918;-71
2022/05/21 02:00:29;;;;;;;;;;;;;;;15.12;100.00;96309.31;1031806;28;19922;-73
2022/05/21 02:01:00;;;;;;;;;;;;;;;15.15;100.00;96298.19;1031788;28;20340;-71
2022/05/21 02:01:30;;;;;;;;;;;;;;;15.13;100.00;96305.63;1034039;28;19920;-71
2022/05/21 02:02:01;;;;;;;;;;;;;;;15.12;100.00;96298.72;1035758;28;20331;-71
2022/05/21 02:02:33;;;;;;;;;;;;;;;15.12;100.00;96303.22;1031566;28;19960;-71
2022/05/21 02:03:04;;;;;;;;;;;;;;;15.11;100.00;96304.31;1027742;28;20319;-72
2022/05/21 02:03:34;;;;;;;;;;;;;;;15.12;100.00;96304.00;1031975;28;19914;-72
2022/05/21 02:04:04;;;;;;;;;;;;;;;15.14;100.00;96307.19;1031977;28;19913;-72
2022/05/21 02:04:35;;;;;;;;;;;;;;;15.12;100.00;96308.53;1031645;28;19945;-72
2022/05/21 02:05:06;;;;;;;;;;;;;;;15.13;100.00;96305.63;1035667;28;19975;-74
2022/05/21 02:05:36;;;;;;;;;;;;;;;15.13;100.00;96316.19;1031685;28;19918;-71
2022/05/21 02:06:07;;;;;;;;;;;;;;;15.11;100.00;96315.66;1031775;28;19957;-72
2022/05/21 02:06:38;;;;;;;;;;;;;;;15.11;100.00;96312.22;1031559;28;20292;-72
2022/05/21 02:07:08;;;;;;;;;;;;;;;15.10;100.00;96311.44;1027780;28;19968;-72
2022/05/21 02:07:39;;;;;;;;;;;;;;;15.10;100.00;96308.81;1023690;28;19934;-71
2022/05/21 02:08:09;;;;;;;;;;;;;;;15.12;100.00;96313.81;1023661;28;19921;-73
2022/05/21 02:08:39;;;;;;;;;;;;;;;15.12;100.00;96313.81;1019661;29;19927;-72
2022/05/21 02:09:10;;;;;;;;;;;;;;;15.08;100.00;96311.72;1019897;29;19923;-71
2022/05/21 02:09:40;;;;;;;;;;;;;;;15.11;100.00;96312.22;1027048;28;20004;-72
2022/05/21 02:10:11;;;;;;;;;;;;;;;15.10;100.00;96311.44;1031210;28;19918;-71
2022/05/21 02:10:41;;;;;;;;;;;;;;;15.10;100.00;96316.75;1033678;28;20012;-71
2022/05/21 02:11:12;;;;;;;;;;;;;;;15.08;100.00;96305.63;1039774;28;19917;-71
2022/05/21 02:11:43;;;;;;;;;;;;;;;15.09;100.00;96320.47;1043792;28;20392;-72
2022/05/21 02:12:16;;;;;;;;;;;;;;;15.09;100.00;96315.16;1043715;28;19927;-72
2022/05/21 02:12:46;;;;;;;;;;;;;;;15.08;100.00;96308.28;1039018;28;20444;-72
2022/05/21 02:13:18;;;;;;;;;;;;;;;15.08;100.00;96317.00;1033019;28;19952;-72
2022/05/21 02:13:49;;;;;;;;;;;;;;;15.06;100.00;96311.22;1035648;28;19917;-69
2022/05/21 02:14:19;;;;;;;;;;;;;;;15.08;100.00;96310.94;1035314;28;19921;-71
2022/05/21 02:14:50;;;;;;;;;;;;;;;15.09;100.00;96309.88;1035777;28;19922;-69
2022/05/21 02:15:20;;;;;;;;;;;;;;;15.08;100.00;96311.72;1035600;28;19917;-71
2022/05/21 02:15:50;;;;;;;;;;;;;;;15.09;100.00;96315.94;1031548;28;20443;-71
2022/05/21 02:16:21;;;;;;;;;;;;;;;15.07;100.00;96312.78;1031625;28;20403;-72
2022/05/21 02:16:51;;;;;;;;;;;;;;;15.07;100.00;96318.06;1027371;28;20273;-71
2022/05/21 02:17:21;;;;;;;;;;;;;;;15.07;100.00;96320.72;1035706;28;20281;-73
2022/05/21 02:17:52;;;;;;;;;;;;;;;15.07;100.00;96322.56;1035546;28;19917;-71
2022/05/21 02:18:22;;;;;;;;;;;;;;;15.05;100.00;96324.69;1035483;28;20008;-71
2022/05/21 02:18:53;;;;;;;;;;;;;;;15.04;100.00;96323.13;1039699;28;19952;-71
2022/05/21 02:19:23;;;;;;;;;;;;;;;15.04;100.00;96323.13;1035651;28;19952;-70
2022/05/21 02:19:53;;;;;;;;;;;;;;;15.03;100.00;96326.84;1034911;28;19985;-71
2022/05/21 02:20:23;;;;;;;;;;;;;;;15.02;100.00;96325.25;1035471;28;19921;-73
2022/05/21 02:20:54;;;;;;;;;;;;;;;14.99;100.00;96321.31;1035632;28;19913;-72
2022/05/21 02:21:24;;;;;;;;;;;;;;;14.97;100.00;96326.09;1035714;28;19926;-70
2022/05/21 02:21:56;;;;;;;;;;;;;;;14.96;100.00;96327.16;1039542;28;19916;-72
2022/05/21 02:22:27;;;;;;;;;;;;;;;14.96;100.00;96321.88;1035355;28;20016;-71
2022/05/21 02:22:57;;;;;;;;;;;;;;;14.95;100.00;96324.78;1035864;28;19909;-72
2022/05/21 02:23:27;;;;;;;;;;;;;;;14.94;100.00;96323.19;1039655;28;19920;-72
2022/05/21 02:23:58;;;;;;;;;;;;;;;14.93;100.00;96326.91;1033837;28;19922;-72
2022/05/21 02:24:28;;;;;;;;;;;;;;;14.92;100.00;96320.03;1035638;28;19920;-72
2022/05/21 02:24:58;;;;;;;;;;;;;;;14.88;100.00;96317.16;1035558;28;19920;-72
2022/05/21 02:25:28;;;;;;;;;;;;;;;14.88;100.00;96324.28;1035686;28;19917;-72
2022/05/21 02:26:00;;;;;;;;;;;;;;;14.84;100.00;96316.91;1039814;28;19917;-72
2022/05/21 02:26:34;;;;;;;;;;;;;;;14.82;100.00;96315.59;1035522;28;19960;-72
2022/05/21 02:27:07;;;;;;;;;;;;;;;14.83;100.00;96320.63;1031572;28;19918;-72
2022/05/21 02:27:37;;;;;;;;;;;;;;;14.84;100.00;96313.50;1027432;28;19918;-71
2022/05/21 02:28:08;;;;;;;;;;;;;;;14.85;100.00;96318.50;1029456;28;19926;-71
2022/05/21 02:28:38;;;;;;;;;;;;;;;14.83;100.00;96311.91;1031642;28;19965;-72
2022/05/21 02:29:09;;;;;;;;;;;;;;;14.82;100.00;96321.72;1031337;28;20465;-72
2022/05/21 02:29:39;;;;;;;;;;;;;;;14.81;100.00;96312.19;1030840;28;20025;-72
2022/05/21 02:30:10;;;;;;;;;;;;;;;14.82;100.00;96315.59;1027518;28;19914;-72
2022/05/21 02:30:40;;;;;;;;;;;;;;;14.83;100.00;96318.00;1035415;28;20056;-71
2022/05/21 02:31:10;;;;;;;;;;;;;;;14.82;100.00;96313.78;1035630;28;19918;-72
2022/05/21 02:31:41;;;;;;;;;;;;;;;14.83;100.00;96314.56;1039708;28;19917;-72
2022/05/21 02:32:12;;;;;;;;;;;;;;;14.82;100.00;96312.97;1035399;28;19940;-70
2022/05/21 02:32:43;;;;;;;;;;;;;;;14.81;100.00;96314.81;1035053;28;20299;-72
2022/05/21 02:33:13;;;;;;;;;;;;;;;14.82;100.00;96316.41;1035540;28;19962;-72
2022/05/21 02:33:44;;;;;;;;;;;;;;;14.81;100.00;96309.53;1031720;28;19917;-72
2022/05/21 02:34:14;;;;;;;;;;;;;;;14.82;100.00;96312.97;1031298;28;19914;-72
2022/05/21 02:34:44;;;;;;;;;;;;;;;14.84;100.00;96309.00;1027584;28;19925;-72
2022/05/21 02:35:15;;;;;;;;;;;;;;;14.81;100.00;96304.25;1031408;28;20394;-72
2022/05/21 02:35:45;;;;;;;;;;;;;;;14.82;100.00;96313.78;1031448;28;19942;-72
2022/05/21 02:36:15;;;;;;;;;;;;;;;14.81;100.00;96309.53;1039517;28;19929;-71
2022/05/21 02:39:29;;;;;;;;;;;;;;;14.77;100.00;96313.00;1026985;28;19924;-71
2022/05/21 02:39:59;;;;;;;;;;;;;;;14.76;100.00;96317.50;1022680;29;19969;-70
2022/05/21 02:40:30;;;;;;;;;;;;;;;14.74;100.00;96314.34;1031138;28;20029;-71
2022/05/21 02:41:00;;;;;;;;;;;;;;;14.72;100.00;96310.41;1025009;28;19922;-72
2022/05/21 02:41:30;;;;;;;;;;;;;;;14.71;100.00;96314.88;1023468;29;19961;-71
2022/05/21 02:42:03;;;;;;;;;;;;;;;14.70;100.00;96310.69;1019531;29;20381;-71
2022/05/21 02:42:43;;;;;;;;;;;;;;;14.70;100.00;96321.25;1023234;28;19921;-72
2022/05/21 02:43:13;;;;;;;;;;;;;;;14.68;100.00;96312.78;1027401;28;20384;-71
2022/05/21 02:43:43;;;;;;;;;;;;;;;14.67;100.00;96310.44;1029189;28;19971;-72
2022/05/21 02:44:14;;;;;;;;;;;;;;;14.65;100.00;96320.47;1028956;28;19921;-72
2022/05/21 02:44:45;;;;;;;;;;;;;;;14.65;100.00;96315.97;1028804;28;19921;-72
2022/05/21 02:45:19;;;;;;;;;;;;;;;14.64;100.00;96317.06;1030982;28;19921;-72
2022/05/21 02:45:49;;;;;;;;;;;;;;;14.64;100.00;96311.78;1032189;28;19956;-72